Terminal Aerodrome Forecast
Issued by NWS

Home | Current Version | Previous Version | Text Only | Print | Product List | Glossary On
Versions: 1 2 3 4 5 6 7 8 9 10 11 12 13 14 15 16 17 18 19 20 21 22 23 24 25 26 27 28 29 30 31 32
000
FTUS45 KBYZ 281140
TAFLVM
TAF
KLVM 281140Z 2812/0112 23019G26KT P6SM FEW080 BKN180
     FM282100 24016G29KT P6SM VCSH SCT030 OVC080
     FM010500 24020G37KT P6SM FEW030 BKN090
     FM011000 23030G46KT P6SM SCT100=

USA.gov is the U.S. government's official web portal to all federal, state and local government web resources and services.